sensor_id;sensor_type;location;lat;lon;timestamp;P1;durP1;ratioP1;P2;durP2;ratioP2
84175;SDS011;74306;40.114;18.304;2024-01-11T00:01:08;51.50;;;34.92;;
84175;SDS011;74306;40.114;18.304;2024-01-11T00:03:37;51.17;;;34.03;;
84175;SDS011;74306;40.114;18.304;2024-01-11T00:06:06;50.83;;;32.90;;
84175;SDS011;74306;40.114;18.304;2024-01-11T00:08:36;47.85;;;33.05;;
84175;SDS011;74306;40.114;18.304;2024-01-11T00:11:05;45.72;;;31.77;;
84175;SDS011;74306;40.114;18.304;2024-01-11T00:13:34;54.17;;;34.92;;
84175;SDS011;74306;40.114;18.304;2024-01-11T00:16:05;59.42;;;38.47;;
84175;SDS011;74306;40.114;18.304;2024-01-11T00:18:35;65.55;;;39.13;;
84175;SDS011;74306;40.114;18.304;2024-01-11T00:21:04;57.92;;;36.67;;
84175;SDS011;74306;40.114;18.304;2024-01-11T00:23:33;53.90;;;36.13;;
84175;SDS011;74306;40.114;18.304;2024-01-11T00:26:03;56.00;;;35.60;;
84175;SDS011;74306;40.114;18.304;2024-01-11T00:28:32;54.08;;;34.97;;
84175;SDS011;74306;40.114;18.304;2024-01-11T00:31:02;49.72;;;33.13;;
84175;SDS011;74306;40.114;18.304;2024-01-11T00:33:33;48.22;;;32.85;;
84175;SDS011;74306;40.114;18.304;2024-01-11T00:36:03;49.15;;;32.40;;
84175;SDS011;74306;40.114;18.304;2024-01-11T00:38:32;54.58;;;32.05;;
84175;SDS011;74306;40.114;18.304;2024-01-11T00:41:02;50.58;;;32.47;;
84175;SDS011;74306;40.114;18.304;2024-01-11T00:43:31;49.13;;;33.33;;
84175;SDS011;74306;40.114;18.304;2024-01-11T00:46:01;47.80;;;32.10;;
84175;SDS011;74306;40.114;18.304;2024-01-11T00:48:30;47.10;;;32.08;;
84175;SDS011;74306;40.114;18.304;2024-01-11T00:51:01;44.95;;;30.52;;
84175;SDS011;74306;40.114;18.304;2024-01-11T00:53:32;51.17;;;33.58;;
84175;SDS011;74306;40.114;18.304;2024-01-11T00:56:01;58.15;;;37.38;;
84175;SDS011;74306;40.114;18.304;2024-01-11T00:58:32;58.75;;;37.45;;
84175;SDS011;74306;40.114;18.304;2024-01-11T01:01:01;53.80;;;36.00;;
84175;SDS011;74306;40.114;18.304;2024-01-11T01:03:31;58.15;;;37.47;;
84175;SDS011;74306;40.114;18.304;2024-01-11T01:06:01;48.63;;;32.10;;
84175;SDS011;74306;40.114;18.304;2024-01-11T01:08:32;50.63;;;31.85;;
84175;SDS011;74306;40.114;18.304;2024-01-11T01:11:01;44.30;;;30.30;;
84175;SDS011;74306;40.114;18.304;2024-01-11T01:13:31;46.90;;;30.23;;
84175;SDS011;74306;40.114;18.304;2024-01-11T01:16:00;45.33;;;29.73;;
84175;SDS011;74306;40.114;18.304;2024-01-11T01:18:29;42.30;;;29.30;;
84175;SDS011;74306;40.114;18.304;2024-01-11T01:20:58;42.33;;;28.10;;
84175;SDS011;74306;40.114;18.304;2024-01-11T01:23:29;39.30;;;26.90;;
84175;SDS011;74306;40.114;18.304;2024-01-11T01:25:58;41.47;;;26.88;;
84175;SDS011;74306;40.114;18.304;2024-01-11T01:28:29;44.38;;;26.38;;
84175;SDS011;74306;40.114;18.304;2024-01-11T01:30:58;39.72;;;25.20;;
84175;SDS011;74306;40.114;18.304;2024-01-11T01:33:27;41.03;;;25.45;;
84175;SDS011;74306;40.114;18.304;2024-01-11T01:35:57;40.35;;;26.92;;
84175;SDS011;74306;40.114;18.304;2024-01-11T01:38:26;37.53;;;25.55;;
84175;SDS011;74306;40.114;18.304;2024-01-11T01:40:59;36.45;;;24.27;;
84175;SDS011;74306;40.114;18.304;2024-01-11T01:43:28;33.65;;;22.67;;
84175;SDS011;74306;40.114;18.304;2024-01-11T01:45:57;34.78;;;23.23;;
84175;SDS011;74306;40.114;18.304;2024-01-11T01:48:27;33.08;;;22.20;;
84175;SDS011;74306;40.114;18.304;2024-01-11T01:50:57;33.30;;;21.88;;
84175;SDS011;74306;40.114;18.304;2024-01-11T01:53:26;34.28;;;22.08;;
84175;SDS011;74306;40.114;18.304;2024-01-11T01:55:56;33.95;;;21.17;;
84175;SDS011;74306;40.114;18.304;2024-01-11T01:58:28;31.45;;;21.52;;
84175;SDS011;74306;40.114;18.304;2024-01-11T02:00:57;31.42;;;20.25;;
84175;SDS011;74306;40.114;18.304;2024-01-11T02:03:27;33.17;;;20.50;;
84175;SDS011;74306;40.114;18.304;2024-01-11T02:05:58;30.55;;;21.13;;
84175;SDS011;74306;40.114;18.304;2024-01-11T02:08:27;30.83;;;20.40;;
84175;SDS011;74306;40.114;18.304;2024-01-11T02:10:59;33.80;;;21.10;;
84175;SDS011;74306;40.114;18.304;2024-01-11T02:13:29;35.30;;;21.00;;
84175;SDS011;74306;40.114;18.304;2024-01-11T02:16:00;29.42;;;19.52;;
84175;SDS011;74306;40.114;18.304;2024-01-11T02:18:29;30.10;;;19.63;;
84175;SDS011;74306;40.114;18.304;2024-01-11T02:20:59;35.08;;;20.52;;
84175;SDS011;74306;40.114;18.304;2024-01-11T02:23:29;28.17;;;20.02;;
84175;SDS011;74306;40.114;18.304;2024-01-11T02:26:01;29.95;;;19.90;;
84175;SDS011;74306;40.114;18.304;2024-01-11T02:28:30;29.98;;;19.30;;
84175;SDS011;74306;40.114;18.304;2024-01-11T02:30:59;24.08;;;17.25;;
84175;SDS011;74306;40.114;18.304;2024-01-11T02:33:29;27.20;;;17.73;;
84175;SDS011;74306;40.114;18.304;2024-01-11T02:35:58;26.90;;;17.52;;
84175;SDS011;74306;40.114;18.304;2024-01-11T02:38:27;27.20;;;17.40;;
84175;SDS011;74306;40.114;18.304;2024-01-11T02:40:58;26.20;;;17.08;;
84175;SDS011;74306;40.114;18.304;2024-01-11T02:43:29;25.35;;;16.25;;
84175;SDS011;74306;40.114;18.304;2024-01-11T02:45:59;31.48;;;17.30;;
84175;SDS011;74306;40.114;18.304;2024-01-11T02:48:28;26.55;;;17.05;;
84175;SDS011;74306;40.114;18.304;2024-01-11T02:50:58;26.40;;;16.48;;
84175;SDS011;74306;40.114;18.304;2024-01-11T02:53:27;25.40;;;15.43;;
84175;SDS011;74306;40.114;18.304;2024-01-11T02:56:03;24.52;;;15.93;;
84175;SDS011;74306;40.114;18.304;2024-01-11T02:58:32;24.23;;;15.82;;
84175;SDS011;74306;40.114;18.304;2024-01-11T03:01:01;25.27;;;15.48;;
84175;SDS011;74306;40.114;18.304;2024-01-11T03:03:31;26.80;;;15.40;;
84175;SDS011;74306;40.114;18.304;2024-01-11T03:06:00;23.00;;;15.25;;
84175;SDS011;74306;40.114;18.304;2024-01-11T03:08:30;21.48;;;14.30;;
84175;SDS011;74306;40.114;18.304;2024-01-11T03:11:00;22.40;;;13.43;;
84175;SDS011;74306;40.114;18.304;2024-01-11T03:13:30;21.10;;;13.27;;
84175;SDS011;74306;40.114;18.304;2024-01-11T03:16:00;22.75;;;12.65;;
84175;SDS011;74306;40.114;18.304;2024-01-11T03:18:31;19.92;;;12.45;;
84175;SDS011;74306;40.114;18.304;2024-01-11T03:21:00;23.40;;;12.45;;
84175;SDS011;74306;40.114;18.304;2024-01-11T03:23:30;20.83;;;12.25;;
84175;SDS011;74306;40.114;18.304;2024-01-11T03:25:59;19.45;;;11.77;;
84175;SDS011;74306;40.114;18.304;2024-01-11T03:28:28;20.08;;;11.43;;
84175;SDS011;74306;40.114;18.304;2024-01-11T03:31:03;19.00;;;11.68;;
84175;SDS011;74306;40.114;18.304;2024-01-11T03:33:32;22.55;;;11.88;;
84175;SDS011;74306;40.114;18.304;2024-01-11T03:36:06;21.33;;;10.85;;
84175;SDS011;74306;40.114;18.304;2024-01-11T03:38:36;19.05;;;11.35;;
84175;SDS011;74306;40.114;18.304;2024-01-11T03:41:07;17.60;;;11.13;;
84175;SDS011;74306;40.114;18.304;2024-01-11T03:43:38;17.83;;;10.57;;
84175;SDS011;74306;40.114;18.304;2024-01-11T03:46:07;16.75;;;10.52;;
84175;SDS011;74306;40.114;18.304;2024-01-11T03:48:37;17.15;;;10.27;;
84175;SDS011;74306;40.114;18.304;2024-01-11T03:51:06;18.38;;;10.32;;
84175;SDS011;74306;40.114;18.304;2024-01-11T03:53:36;15.68;;;10.00;;
84175;SDS011;74306;40.114;18.304;2024-01-11T03:56:05;16.58;;;10.13;;
84175;SDS011;74306;40.114;18.304;2024-01-11T03:58:35;14.52;;;9.63;;
84175;SDS011;74306;40.114;18.304;2024-01-11T04:01:07;16.15;;;10.25;;
84175;SDS011;74306;40.114;18.304;2024-01-11T04:03:37;16.35;;;10.05;;
84175;SDS011;74306;40.114;18.304;2024-01-11T04:06:07;18.00;;;10.02;;
84175;SDS011;74306;40.114;18.304;2024-01-11T04:08:36;15.10;;;9.38;;
84175;SDS011;74306;40.114;18.304;2024-01-11T04:11:05;18.30;;;9.13;;
84175;SDS011;74306;40.114;18.304;2024-01-11T04:13:35;15.30;;;8.93;;
84175;SDS011;74306;40.114;18.304;2024-01-11T04:16:07;14.68;;;8.68;;
84175;SDS011;74306;40.114;18.304;2024-01-11T04:18:37;16.33;;;9.30;;
84175;SDS011;74306;40.114;18.304;2024-01-11T04:21:07;14.88;;;8.88;;
84175;SDS011;74306;40.114;18.304;2024-01-11T04:23:36;15.70;;;9.80;;
84175;SDS011;74306;40.114;18.304;2024-01-11T04:26:05;14.70;;;8.98;;
84175;SDS011;74306;40.114;18.304;2024-01-11T04:28:36;17.02;;;9.48;;
84175;SDS011;74306;40.114;18.304;2024-01-11T04:31:09;14.48;;;9.00;;
84175;SDS011;74306;40.114;18.304;2024-01-11T04:33:39;13.55;;;8.40;;
84175;SDS011;74306;40.114;18.304;2024-01-11T04:36:10;14.30;;;8.88;;
84175;SDS011;74306;40.114;18.304;2024-01-11T04:38:39;16.48;;;9.23;;
84175;SDS011;74306;40.114;18.304;2024-01-11T04:41:09;15.52;;;8.82;;
84175;SDS011;74306;40.114;18.304;2024-01-11T04:43:39;16.10;;;9.07;;
84175;SDS011;74306;40.114;18.304;2024-01-11T04:46:16;14.93;;;9.00;;
84175;SDS011;74306;40.114;18.304;2024-01-11T04:48:47;17.02;;;8.98;;
84175;SDS011;74306;40.114;18.304;2024-01-11T04:51:17;16.70;;;9.48;;
84175;SDS011;74306;40.114;18.304;2024-01-11T04:53:47;17.85;;;9.43;;
84175;SDS011;74306;40.114;18.304;2024-01-11T04:56:16;15.50;;;9.00;;
84175;SDS011;74306;40.114;18.304;2024-01-11T04:58:46;17.00;;;8.43;;
84175;SDS011;74306;40.114;18.304;2024-01-11T05:01:17;17.65;;;9.30;;
84175;SDS011;74306;40.114;18.304;2024-01-11T05:03:47;15.48;;;8.82;;
84175;SDS011;74306;40.114;18.304;2024-01-11T05:06:16;17.65;;;9.50;;
84175;SDS011;74306;40.114;18.304;2024-01-11T05:08:46;16.70;;;9.93;;
84175;SDS011;74306;40.114;18.304;2024-01-11T05:11:16;15.55;;;9.23;;
84175;SDS011;74306;40.114;18.304;2024-01-11T05:13:46;17.08;;;9.20;;
84175;SDS011;74306;40.114;18.304;2024-01-11T05:16:19;15.98;;;9.65;;
84175;SDS011;74306;40.114;18.304;2024-01-11T05:18:51;16.52;;;9.00;;
84175;SDS011;74306;40.114;18.304;2024-01-11T05:21:21;18.70;;;10.13;;
84175;SDS011;74306;40.114;18.304;2024-01-11T05:23:51;16.60;;;9.90;;
84175;SDS011;74306;40.114;18.304;2024-01-11T05:26:20;17.65;;;9.63;;
84175;SDS011;74306;40.114;18.304;2024-01-11T05:28:50;17.85;;;9.65;;
84175;SDS011;74306;40.114;18.304;2024-01-11T05:31:20;17.20;;;9.73;;
84175;SDS011;74306;40.114;18.304;2024-01-11T05:33:50;15.63;;;9.60;;
84175;SDS011;74306;40.114;18.304;2024-01-11T05:36:19;17.67;;;10.20;;
84175;SDS011;74306;40.114;18.304;2024-01-11T05:38:49;20.63;;;10.48;;
84175;SDS011;74306;40.114;18.304;2024-01-11T05:41:19;18.08;;;10.60;;
84175;SDS011;74306;40.114;18.304;2024-01-11T05:43:49;18.75;;;10.65;;
84175;SDS011;74306;40.114;18.304;2024-01-11T05:46:18;19.45;;;11.10;;
84175;SDS011;74306;40.114;18.304;2024-01-11T05:48:49;19.38;;;11.27;;
84175;SDS011;74306;40.114;18.304;2024-01-11T05:51:18;19.10;;;11.60;;
84175;SDS011;74306;40.114;18.304;2024-01-11T05:53:48;18.60;;;11.25;;
84175;SDS011;74306;40.114;18.304;2024-01-11T05:56:18;19.55;;;11.48;;
84175;SDS011;74306;40.114;18.304;2024-01-11T05:58:48;21.20;;;10.65;;
84175;SDS011;74306;40.114;18.304;2024-01-11T06:01:17;17.05;;;10.55;;
84175;SDS011;74306;40.114;18.304;2024-01-11T06:03:48;21.70;;;11.75;;
84175;SDS011;74306;40.114;18.304;2024-01-11T06:06:17;21.00;;;11.48;;
84175;SDS011;74306;40.114;18.304;2024-01-11T06:08:47;21.67;;;11.48;;
84175;SDS011;74306;40.114;18.304;2024-01-11T06:11:17;21.23;;;11.75;;
84175;SDS011;74306;40.114;18.304;2024-01-11T06:13:46;20.83;;;11.38;;
84175;SDS011;74306;40.114;18.304;2024-01-11T06:16:16;19.73;;;11.45;;
84175;SDS011;74306;40.114;18.304;2024-01-11T06:18:45;18.27;;;10.80;;
84175;SDS011;74306;40.114;18.304;2024-01-11T06:21:16;20.25;;;11.68;;
84175;SDS011;74306;40.114;18.304;2024-01-11T06:23:45;20.95;;;12.65;;
84175;SDS011;74306;40.114;18.304;2024-01-11T06:26:15;26.67;;;14.05;;
84175;SDS011;74306;40.114;18.304;2024-01-11T06:28:44;20.45;;;13.40;;
84175;SDS011;74306;40.114;18.304;2024-01-11T06:31:13;21.17;;;12.52;;
84175;SDS011;74306;40.114;18.304;2024-01-11T06:33:42;22.50;;;13.13;;
84175;SDS011;74306;40.114;18.304;2024-01-11T06:36:13;23.42;;;13.73;;
84175;SDS011;74306;40.114;18.304;2024-01-11T06:38:43;22.98;;;12.93;;
84175;SDS011;74306;40.114;18.304;2024-01-11T06:41:13;23.70;;;13.15;;
84175;SDS011;74306;40.114;18.304;2024-01-11T06:43:42;28.67;;;13.52;;
84175;SDS011;74306;40.114;18.304;2024-01-11T06:46:12;22.52;;;13.40;;
84175;SDS011;74306;40.114;18.304;2024-01-11T06:48:41;22.13;;;12.57;;
84175;SDS011;74306;40.114;18.304;2024-01-11T06:51:13;26.17;;;13.07;;
84175;SDS011;74306;40.114;18.304;2024-01-11T06:53:44;22.77;;;13.00;;
84175;SDS011;74306;40.114;18.304;2024-01-11T06:56:14;22.95;;;13.18;;
84175;SDS011;74306;40.114;18.304;2024-01-11T06:58:43;22.83;;;12.75;;
84175;SDS011;74306;40.114;18.304;2024-01-11T07:01:13;25.42;;;13.63;;
84175;SDS011;74306;40.114;18.304;2024-01-11T07:03:42;30.58;;;14.70;;
84175;SDS011;74306;40.114;18.304;2024-01-11T07:06:11;26.50;;;13.77;;
84175;SDS011;74306;40.114;18.304;2024-01-11T07:08:41;27.08;;;13.60;;
84175;SDS011;74306;40.114;18.304;2024-01-11T07:11:11;28.80;;;14.30;;
84175;SDS011;74306;40.114;18.304;2024-01-11T07:13:41;29.15;;;15.15;;
84175;SDS011;74306;40.114;18.304;2024-01-11T07:16:12;34.30;;;16.35;;
84175;SDS011;74306;40.114;18.304;2024-01-11T07:18:42;32.03;;;15.43;;
84175;SDS011;74306;40.114;18.304;2024-01-11T07:21:12;32.15;;;15.77;;
84175;SDS011;74306;40.114;18.304;2024-01-11T07:23:41;35.10;;;15.88;;
84175;SDS011;74306;40.114;18.304;2024-01-11T07:26:12;29.77;;;16.75;;
84175;SDS011;74306;40.114;18.304;2024-01-11T07:28:41;31.48;;;16.20;;
84175;SDS011;74306;40.114;18.304;2024-01-11T07:31:11;28.88;;;15.80;;
84175;SDS011;74306;40.114;18.304;2024-01-11T07:33:40;28.73;;;14.93;;
84175;SDS011;74306;40.114;18.304;2024-01-11T07:36:10;28.38;;;15.05;;
84175;SDS011;74306;40.114;18.304;2024-01-11T07:38:39;27.38;;;15.50;;
84175;SDS011;74306;40.114;18.304;2024-01-11T07:41:09;28.77;;;15.20;;
84175;SDS011;74306;40.114;18.304;2024-01-11T07:43:41;26.73;;;15.38;;
84175;SDS011;74306;40.114;18.304;2024-01-11T07:46:11;25.05;;;14.57;;
84175;SDS011;74306;40.114;18.304;2024-01-11T07:48:40;22.33;;;14.27;;
84175;SDS011;74306;40.114;18.304;2024-01-11T07:51:10;23.05;;;14.10;;
84175;SDS011;74306;40.114;18.304;2024-01-11T07:53:39;24.50;;;13.80;;
84175;SDS011;74306;40.114;18.304;2024-01-11T07:56:08;28.95;;;15.13;;
84175;SDS011;74306;40.114;18.304;2024-01-11T07:58:37;36.40;;;15.23;;
84175;SDS011;74306;40.114;18.304;2024-01-11T08:01:10;29.90;;;14.68;;
84175;SDS011;74306;40.114;18.304;2024-01-11T08:03:39;26.52;;;13.32;;
84175;SDS011;74306;40.114;18.304;2024-01-11T08:06:09;27.27;;;15.98;;
84175;SDS011;74306;40.114;18.304;2024-01-11T08:08:38;28.42;;;17.17;;
84175;SDS011;74306;40.114;18.304;2024-01-11T08:11:08;28.52;;;18.88;;
84175;SDS011;74306;40.114;18.304;2024-01-11T08:13:39;31.42;;;20.02;;
84175;SDS011;74306;40.114;18.304;2024-01-11T08:16:14;34.38;;;20.55;;
84175;SDS011;74306;40.114;18.304;2024-01-11T08:18:45;34.10;;;19.77;;
84175;SDS011;74306;40.114;18.304;2024-01-11T08:21:16;33.90;;;19.90;;
84175;SDS011;74306;40.114;18.304;2024-01-11T08:23:46;34.17;;;19.70;;
84175;SDS011;74306;40.114;18.304;2024-01-11T08:26:16;35.47;;;19.88;;
84175;SDS011;74306;40.114;18.304;2024-01-11T08:28:46;32.65;;;19.58;;
84175;SDS011;74306;40.114;18.304;2024-01-11T08:31:17;30.40;;;18.52;;
84175;SDS011;74306;40.114;18.304;2024-01-11T08:33:47;27.52;;;17.85;;
84175;SDS011;74306;40.114;18.304;2024-01-11T08:36:17;27.38;;;16.05;;
84175;SDS011;74306;40.114;18.304;2024-01-11T08:38:47;25.65;;;15.48;;
84175;SDS011;74306;40.114;18.304;2024-01-11T08:41:17;22.98;;;13.20;;
84175;SDS011;74306;40.114;18.304;2024-01-11T08:43:46;18.83;;;12.20;;
84175;SDS011;74306;40.114;18.304;2024-01-11T08:46:24;16.27;;;10.57;;
84175;SDS011;74306;40.114;18.304;2024-01-11T08:48:53;14.18;;;8.73;;
84175;SDS011;74306;40.114;18.304;2024-01-11T08:51:24;14.90;;;7.72;;
84175;SDS011;74306;40.114;18.304;2024-01-11T08:53:53;12.38;;;7.50;;
84175;SDS011;74306;40.114;18.304;2024-01-11T08:56:23;12.55;;;7.43;;
84175;SDS011;74306;40.114;18.304;2024-01-11T08:58:52;11.30;;;6.80;;
84175;SDS011;74306;40.114;18.304;2024-01-11T09:01:22;9.40;;;5.82;;
84175;SDS011;74306;40.114;18.304;2024-01-11T09:03:52;9.48;;;5.90;;
84175;SDS011;74306;40.114;18.304;2024-01-11T09:06:22;8.55;;;5.72;;
84175;SDS011;74306;40.114;18.304;2024-01-11T09:08:51;9.15;;;5.75;;
84175;SDS011;74306;40.114;18.304;2024-01-11T09:11:20;9.75;;;5.72;;
84175;SDS011;74306;40.114;18.304;2024-01-11T09:13:50;8.82;;;5.30;;
84175;SDS011;74306;40.114;18.304;2024-01-11T09:16:19;9.20;;;5.20;;
84175;SDS011;74306;40.114;18.304;2024-01-11T09:18:50;8.00;;;4.88;;
84175;SDS011;74306;40.114;18.304;2024-01-11T09:21:20;7.15;;;4.75;;
84175;SDS011;74306;40.114;18.304;2024-01-11T09:23:49;7.95;;;4.85;;
84175;SDS011;74306;40.114;18.304;2024-01-11T09:26:18;7.53;;;4.95;;
84175;SDS011;74306;40.114;18.304;2024-01-11T09:28:49;7.57;;;4.50;;
84175;SDS011;74306;40.114;18.304;2024-01-11T09:31:19;7.00;;;4.43;;
84175;SDS011;74306;40.114;18.304;2024-01-11T09:33:49;9.38;;;4.90;;
84175;SDS011;74306;40.114;18.304;2024-01-11T09:36:20;8.52;;;5.20;;
84175;SDS011;74306;40.114;18.304;2024-01-11T09:38:49;8.43;;;4.90;;
84175;SDS011;74306;40.114;18.304;2024-01-11T09:41:19;6.68;;;3.83;;
84175;SDS011;74306;40.114;18.304;2024-01-11T09:43:49;8.48;;;4.47;;
84175;SDS011;74306;40.114;18.304;2024-01-11T09:46:22;6.65;;;4.47;;
84175;SDS011;74306;40.114;18.304;2024-01-11T09:48:53;10.32;;;4.47;;
84175;SDS011;74306;40.114;18.304;2024-01-11T09:51:26;6.07;;;3.72;;
84175;SDS011;74306;40.114;18.304;2024-01-11T09:53:58;6.63;;;4.13;;
84175;SDS011;74306;40.114;18.304;2024-01-11T09:56:28;7.57;;;4.30;;
84175;SDS011;74306;40.114;18.304;2024-01-11T09:58:57;7.18;;;3.90;;
84175;SDS011;74306;40.114;18.304;2024-01-11T10:01:27;7.10;;;4.38;;
84175;SDS011;74306;40.114;18.304;2024-01-11T10:03:58;6.43;;;4.05;;
84175;SDS011;74306;40.114;18.304;2024-01-11T10:06:28;6.72;;;4.38;;
84175;SDS011;74306;40.114;18.304;2024-01-11T10:09:01;7.65;;;4.50;;
84175;SDS011;74306;40.114;18.304;2024-01-11T10:11:31;7.63;;;4.80;;
84175;SDS011;74306;40.114;18.304;2024-01-11T10:14:01;7.80;;;5.13;;
84175;SDS011;74306;40.114;18.304;2024-01-11T10:16:32;10.13;;;4.55;;
84175;SDS011;74306;40.114;18.304;2024-01-11T10:19:03;6.18;;;4.28;;
84175;SDS011;74306;40.114;18.304;2024-01-11T10:21:32;7.88;;;4.28;;
84175;SDS011;74306;40.114;18.304;2024-01-11T10:24:02;7.20;;;4.20;;
84175;SDS011;74306;40.114;18.304;2024-01-11T10:26:31;6.38;;;3.97;;
84175;SDS011;74306;40.114;18.304;2024-01-11T10:29:01;6.60;;;3.90;;
84175;SDS011;74306;40.114;18.304;2024-01-11T10:31:33;6.90;;;4.30;;
84175;SDS011;74306;40.114;18.304;2024-01-11T10:34:04;8.02;;;4.05;;
84175;SDS011;74306;40.114;18.304;2024-01-11T10:36:33;7.93;;;4.40;;
84175;SDS011;74306;40.114;18.304;2024-01-11T10:39:03;7.10;;;4.47;;
84175;SDS011;74306;40.114;18.304;2024-01-11T10:41:36;7.50;;;4.20;;
84175;SDS011;74306;40.114;18.304;2024-01-11T10:44:11;6.75;;;4.05;;
84175;SDS011;74306;40.114;18.304;2024-01-11T10:46:47;6.30;;;3.72;;
84175;SDS011;74306;40.114;18.304;2024-01-11T10:49:19;5.75;;;3.78;;
84175;SDS011;74306;40.114;18.304;2024-01-11T10:51:53;6.05;;;3.75;;
84175;SDS011;74306;40.114;18.304;2024-01-11T10:54:27;7.70;;;3.85;;
84175;SDS011;74306;40.114;18.304;2024-01-11T10:56:58;5.75;;;3.55;;
84175;SDS011;74306;40.114;18.304;2024-01-11T10:59:28;4.72;;;3.13;;
84175;SDS011;74306;40.114;18.304;2024-01-11T11:02:03;5.90;;;3.55;;
84175;SDS011;74306;40.114;18.304;2024-01-11T11:04:39;5.65;;;3.58;;
84175;SDS011;74306;40.114;18.304;2024-01-11T11:07:10;6.50;;;3.90;;
84175;SDS011;74306;40.114;18.304;2024-01-11T11:09:41;6.10;;;3.92;;
84175;SDS011;74306;40.114;18.304;2024-01-11T11:12:12;5.43;;;3.33;;
84175;SDS011;74306;40.114;18.304;2024-01-11T11:14:44;6.90;;;4.03;;
84175;SDS011;74306;40.114;18.304;2024-01-11T11:17:14;6.32;;;4.15;;
84175;SDS011;74306;40.114;18.304;2024-01-11T11:19:46;6.53;;;3.72;;
84175;SDS011;74306;40.114;18.304;2024-01-11T11:22:15;6.35;;;3.65;;
84175;SDS011;74306;40.114;18.304;2024-01-11T11:24:47;7.10;;;4.30;;
84175;SDS011;74306;40.114;18.304;2024-01-11T11:27:16;5.78;;;3.85;;
84175;SDS011;74306;40.114;18.304;2024-01-11T11:29:46;6.32;;;4.03;;
84175;SDS011;74306;40.114;18.304;2024-01-11T11:32:17;7.13;;;4.28;;
84175;SDS011;74306;40.114;18.304;2024-01-11T11:35:05;8.80;;;3.95;;
84175;SDS011;74306;40.114;18.304;2024-01-11T11:37:36;6.78;;;4.07;;
84175;SDS011;74306;40.114;18.304;2024-01-11T11:40:06;9.75;;;3.90;;
84175;SDS011;74306;40.114;18.304;2024-01-11T11:42:38;6.93;;;4.10;;
84175;SDS011;74306;40.114;18.304;2024-01-11T11:45:08;7.07;;;4.40;;
84175;SDS011;74306;40.114;18.304;2024-01-11T11:47:39;6.60;;;4.18;;
84175;SDS011;74306;40.114;18.304;2024-01-11T11:50:11;7.18;;;3.95;;
84175;SDS011;74306;40.114;18.304;2024-01-11T11:52:41;7.13;;;4.10;;
84175;SDS011;74306;40.114;18.304;2024-01-11T11:55:10;5.57;;;3.75;;
84175;SDS011;74306;40.114;18.304;2024-01-11T11:57:41;7.10;;;3.97;;
84175;SDS011;74306;40.114;18.304;2024-01-11T12:00:13;7.13;;;4.35;;
84175;SDS011;74306;40.114;18.304;2024-01-11T12:02:43;7.10;;;4.05;;
84175;SDS011;74306;40.114;18.304;2024-01-11T12:05:17;7.03;;;3.90;;
84175;SDS011;74306;40.114;18.304;2024-01-11T12:07:47;7.13;;;4.18;;
84175;SDS011;74306;40.114;18.304;2024-01-11T12:10:16;6.00;;;3.67;;
84175;SDS011;74306;40.114;18.304;2024-01-11T12:12:46;8.52;;;4.32;;
84175;SDS011;74306;40.114;18.304;2024-01-11T12:15:15;6.70;;;4.03;;
84175;SDS011;74306;40.114;18.304;2024-01-11T12:17:45;7.38;;;4.60;;
84175;SDS011;74306;40.114;18.304;2024-01-11T12:20:16;8.50;;;5.15;;
84175;SDS011;74306;40.114;18.304;2024-01-11T12:22:48;8.32;;;4.40;;
84175;SDS011;74306;40.114;18.304;2024-01-11T12:25:18;6.53;;;4.03;;
84175;SDS011;74306;40.114;18.304;2024-01-11T12:27:47;8.32;;;4.15;;
84175;SDS011;74306;40.114;18.304;2024-01-11T12:30:16;6.30;;;3.70;;
84175;SDS011;74306;40.114;18.304;2024-01-11T12:32:46;5.95;;;3.60;;
84175;SDS011;74306;40.114;18.304;2024-01-11T12:35:17;6.13;;;3.67;;
84175;SDS011;74306;40.114;18.304;2024-01-11T12:37:52;6.82;;;4.00;;
84175;SDS011;74306;40.114;18.304;2024-01-11T12:40:22;5.90;;;3.63;;
84175;SDS011;74306;40.114;18.304;2024-01-11T12:42:51;7.15;;;3.90;;
84175;SDS011;74306;40.114;18.304;2024-01-11T12:45:21;6.05;;;3.83;;
84175;SDS011;74306;40.114;18.304;2024-01-11T12:47:53;6.32;;;3.75;;
84175;SDS011;74306;40.114;18.304;2024-01-11T12:50:25;6.10;;;3.78;;
84175;SDS011;74306;40.114;18.304;2024-01-11T12:53:08;7.95;;;4.43;;
84175;SDS011;74306;40.114;18.304;2024-01-11T12:55:39;6.85;;;3.88;;
84175;SDS011;74306;40.114;18.304;2024-01-11T12:58:11;7.75;;;4.30;;
84175;SDS011;74306;40.114;18.304;2024-01-11T13:00:40;7.55;;;4.80;;
84175;SDS011;74306;40.114;18.304;2024-01-11T13:03:10;8.13;;;4.90;;
84175;SDS011;74306;40.114;18.304;2024-01-11T13:05:40;8.02;;;5.13;;
84175;SDS011;74306;40.114;18.304;2024-01-11T13:08:11;11.05;;;5.43;;
84175;SDS011;74306;40.114;18.304;2024-01-11T13:10:40;7.93;;;5.13;;
84175;SDS011;74306;40.114;18.304;2024-01-11T13:13:11;9.23;;;5.40;;
84175;SDS011;74306;40.114;18.304;2024-01-11T13:15:41;7.53;;;4.80;;
84175;SDS011;74306;40.114;18.304;2024-01-11T13:18:10;7.93;;;4.90;;
84175;SDS011;74306;40.114;18.304;2024-01-11T13:20:41;7.75;;;5.15;;
84175;SDS011;74306;40.114;18.304;2024-01-11T13:23:11;8.35;;;5.05;;
84175;SDS011;74306;40.114;18.304;2024-01-11T13:25:42;7.82;;;5.07;;
84175;SDS011;74306;40.114;18.304;2024-01-11T13:28:12;8.20;;;5.03;;
84175;SDS011;74306;40.114;18.304;2024-01-11T13:30:43;9.23;;;5.00;;
84175;SDS011;74306;40.114;18.304;2024-01-11T13:33:13;7.78;;;4.78;;
84175;SDS011;74306;40.114;18.304;2024-01-11T13:35:46;9.18;;;5.10;;
84175;SDS011;74306;40.114;18.304;2024-01-11T13:38:15;7.50;;;4.78;;
84175;SDS011;74306;40.114;18.304;2024-01-11T13:40:45;8.65;;;4.88;;
84175;SDS011;74306;40.114;18.304;2024-01-11T13:43:15;9.23;;;5.30;;
84175;SDS011;74306;40.114;18.304;2024-01-11T13:45:45;7.47;;;5.13;;
84175;SDS011;74306;40.114;18.304;2024-01-11T13:48:15;7.65;;;5.00;;
84175;SDS011;74306;40.114;18.304;2024-01-11T13:50:46;8.13;;;5.22;;
84175;SDS011;74306;40.114;18.304;2024-01-11T13:53:16;9.93;;;5.32;;
84175;SDS011;74306;40.114;18.304;2024-01-11T13:55:45;8.43;;;5.38;;
84175;SDS011;74306;40.114;18.304;2024-01-11T13:58:14;8.45;;;5.10;;
84175;SDS011;74306;40.114;18.304;2024-01-11T14:00:45;8.55;;;5.85;;
84175;SDS011;74306;40.114;18.304;2024-01-11T14:03:14;9.50;;;5.60;;
84175;SDS011;74306;40.114;18.304;2024-01-11T14:05:44;8.63;;;5.47;;
84175;SDS011;74306;40.114;18.304;2024-01-11T14:08:15;7.78;;;5.28;;
84175;SDS011;74306;40.114;18.304;2024-01-11T14:10:45;8.48;;;5.30;;
84175;SDS011;74306;40.114;18.304;2024-01-11T14:13:14;8.40;;;5.63;;
84175;SDS011;74306;40.114;18.304;2024-01-11T14:15:43;7.97;;;5.70;;
84175;SDS011;74306;40.114;18.304;2024-01-11T14:18:15;9.82;;;6.45;;
84175;SDS011;74306;40.114;18.304;2024-01-11T14:20:44;9.82;;;6.35;;
84175;SDS011;74306;40.114;18.304;2024-01-11T14:23:15;11.90;;;6.90;;
84175;SDS011;74306;40.114;18.304;2024-01-11T14:25:45;11.52;;;7.18;;
84175;SDS011;74306;40.114;18.304;2024-01-11T14:28:15;12.13;;;7.72;;
84175;SDS011;74306;40.114;18.304;2024-01-11T14:30:44;12.32;;;7.90;;
84175;SDS011;74306;40.114;18.304;2024-01-11T14:33:14;12.32;;;7.50;;
84175;SDS011;74306;40.114;18.304;2024-01-11T14:35:43;12.20;;;7.47;;